sensor_id;sensor_type;location;lat;lon;timestamp;temperature;humidity
70534;SHT31;58088;51.186;17.130;2023-04-06T00:00:06;0.75;67.96
70534;SHT31;58088;51.186;17.130;2023-04-06T00:02:35;0.73;67.97
70534;SHT31;58088;51.186;17.130;2023-04-06T00:05:02;0.72;68.03
70534;SHT31;58088;51.186;17.130;2023-04-06T00:07:28;0.70;68.10
70534;SHT31;58088;51.186;17.130;2023-04-06T00:09:55;0.62;68.46
70534;SHT31;58088;51.186;17.130;2023-04-06T00:12:21;0.56;68.84
70534;SHT31;58088;51.186;17.130;2023-04-06T00:14:47;0.56;69.01
70534;SHT31;58088;51.186;17.130;2023-04-06T00:17:14;0.57;69.03
70534;SHT31;58088;51.186;17.130;2023-04-06T00:19:40;0.55;68.83
70534;SHT31;58088;51.186;17.130;2023-04-06T00:22:07;0.55;68.80
70534;SHT31;58088;51.186;17.130;2023-04-06T00:24:33;0.54;68.82
70534;SHT31;58088;51.186;17.130;2023-04-06T00:26:59;0.54;68.70
70534;SHT31;58088;51.186;17.130;2023-04-06T00:29:25;0.52;68.73
70534;SHT31;58088;51.186;17.130;2023-04-06T00:31:51;0.52;68.86
70534;SHT31;58088;51.186;17.130;2023-04-06T00:34:17;0.49;68.71
70534;SHT31;58088;51.186;17.130;2023-04-06T00:36:43;0.47;68.88
70534;SHT31;58088;51.186;17.130;2023-04-06T00:39:10;0.48;69.22
70534;SHT31;58088;51.186;17.130;2023-04-06T00:41:36;0.48;69.32
70534;SHT31;58088;51.186;17.130;2023-04-06T00:44:02;0.47;69.38
70534;SHT31;58088;51.186;17.130;2023-04-06T00:46:28;0.47;69.38
70534;SHT31;58088;51.186;17.130;2023-04-06T00:48:56;0.44;69.36
70534;SHT31;58088;51.186;17.130;2023-04-06T00:51:22;0.45;69.40
70534;SHT31;58088;51.186;17.130;2023-04-06T00:53:48;0.44;69.35
70534;SHT31;58088;51.186;17.130;2023-04-06T00:56:15;0.41;69.21
70534;SHT31;58088;51.186;17.130;2023-04-06T00:58:50;0.40;69.25
70534;SHT31;58088;51.186;17.130;2023-04-06T01:01:16;0.39;69.30
70534;SHT31;58088;51.186;17.130;2023-04-06T01:03:42;0.37;69.33
70534;SHT31;58088;51.186;17.130;2023-04-06T01:06:13;0.38;69.25
70534;SHT31;58088;51.186;17.130;2023-04-06T01:08:39;0.39;69.39
70534;SHT31;58088;51.186;17.130;2023-04-06T01:11:17;0.39;69.49
70534;SHT31;58088;51.186;17.130;2023-04-06T01:13:43;0.36;69.50
70534;SHT31;58088;51.186;17.130;2023-04-06T01:16:24;0.32;69.50
70534;SHT31;58088;51.186;17.130;2023-04-06T01:19:16;0.28;69.54
70534;SHT31;58088;51.186;17.130;2023-04-06T01:21:46;0.28;69.58
70534;SHT31;58088;51.186;17.130;2023-04-06T01:24:24;0.28;69.44
70534;SHT31;58088;51.186;17.130;2023-04-06T01:27:13;0.29;69.30
70534;SHT31;58088;51.186;17.130;2023-04-06T01:29:47;0.30;69.22
70534;SHT31;58088;51.186;17.130;2023-04-06T01:32:17;0.27;69.11
70534;SHT31;58088;51.186;17.130;2023-04-06T01:34:47;0.28;69.01
70534;SHT31;58088;51.186;17.130;2023-04-06T01:37:13;0.27;69.04
70534;SHT31;58088;51.186;17.130;2023-04-06T01:39:41;0.25;69.25
70534;SHT31;58088;51.186;17.130;2023-04-06T01:42:09;0.24;69.22
70534;SHT31;58088;51.186;17.130;2023-04-06T01:44:36;0.24;69.20
70534;SHT31;58088;51.186;17.130;2023-04-06T01:47:07;0.22;69.12
70534;SHT31;58088;51.186;17.130;2023-04-06T01:49:33;0.21;69.14
70534;SHT31;58088;51.186;17.130;2023-04-06T01:52:00;0.20;69.26
70534;SHT31;58088;51.186;17.130;2023-04-06T01:54:26;0.16;69.49
70534;SHT31;58088;51.186;17.130;2023-04-06T01:57:07;0.12;69.65
70534;SHT31;58088;51.186;17.130;2023-04-06T02:00:01;0.12;69.84
70534;SHT31;58088;51.186;17.130;2023-04-06T02:02:38;0.12;69.65
70534;SHT31;58088;51.186;17.130;2023-04-06T02:05:07;0.12;69.50
70534;SHT31;58088;51.186;17.130;2023-04-06T02:07:35;0.10;69.45
70534;SHT31;58088;51.186;17.130;2023-04-06T02:10:02;0.09;69.35
70534;SHT31;58088;51.186;17.130;2023-04-06T02:12:35;0.09;69.30
70534;SHT31;58088;51.186;17.130;2023-04-06T02:15:01;0.07;69.20
70534;SHT31;58088;51.186;17.130;2023-04-06T02:17:29;0.05;69.22
70534;SHT31;58088;51.186;17.130;2023-04-06T02:19:56;0.03;69.26
70534;SHT31;58088;51.186;17.130;2023-04-06T02:22:23;0.02;69.10
70534;SHT31;58088;51.186;17.130;2023-04-06T02:24:49;0.01;69.19
70534;SHT31;58088;51.186;17.130;2023-04-06T02:27:15;0.00;69.30
70534;SHT31;58088;51.186;17.130;2023-04-06T02:29:45;-0.01;69.54
70534;SHT31;58088;51.186;17.130;2023-04-06T02:32:11;-0.01;69.60
70534;SHT31;58088;51.186;17.130;2023-04-06T02:34:37;-0.05;69.73
70534;SHT31;58088;51.186;17.130;2023-04-06T02:37:03;-0.08;69.63
70534;SHT31;58088;51.186;17.130;2023-04-06T02:39:30;-0.08;69.52
70534;SHT31;58088;51.186;17.130;2023-04-06T02:41:57;-0.08;69.32
70534;SHT31;58088;51.186;17.130;2023-04-06T02:44:24;-0.08;69.15
70534;SHT31;58088;51.186;17.130;2023-04-06T02:46:50;-0.10;69.07
70534;SHT31;58088;51.186;17.130;2023-04-06T02:49:16;-0.11;69.04
70534;SHT31;58088;51.186;17.130;2023-04-06T02:51:43;-0.11;69.11
70534;SHT31;58088;51.186;17.130;2023-04-06T02:54:17;-0.12;69.26
70534;SHT31;58088;51.186;17.130;2023-04-06T02:56:43;-0.12;69.25
70534;SHT31;58088;51.186;17.130;2023-04-06T02:59:10;-0.12;69.12
70534;SHT31;58088;51.186;17.130;2023-04-06T03:01:37;-0.12;68.98
70534;SHT31;58088;51.186;17.130;2023-04-06T03:04:04;-0.15;68.96
70534;SHT31;58088;51.186;17.130;2023-04-06T03:06:30;-0.16;69.00
70534;SHT31;58088;51.186;17.130;2023-04-06T03:09:01;-0.21;68.90
70534;SHT31;58088;51.186;17.130;2023-04-06T03:11:32;-0.22;68.88
70534;SHT31;58088;51.186;17.130;2023-04-06T03:13:58;-0.25;68.89
70534;SHT31;58088;51.186;17.130;2023-04-06T03:16:25;-0.27;68.93
70534;SHT31;58088;51.186;17.130;2023-04-06T03:18:51;-0.28;68.96
70534;SHT31;58088;51.186;17.130;2023-04-06T03:21:18;-0.29;68.83
70534;SHT31;58088;51.186;17.130;2023-04-06T03:23:50;-0.31;68.85
70534;SHT31;58088;51.186;17.130;2023-04-06T03:26:16;-0.30;68.97
70534;SHT31;58088;51.186;17.130;2023-04-06T03:28:43;-0.30;69.09
70534;SHT31;58088;51.186;17.130;2023-04-06T03:31:10;-0.31;69.22
70534;SHT31;58088;51.186;17.130;2023-04-06T03:33:52;-0.33;69.29
70534;SHT31;58088;51.186;17.130;2023-04-06T03:36:22;-0.33;69.33
70534;SHT31;58088;51.186;17.130;2023-04-06T03:38:48;-0.35;69.53
70534;SHT31;58088;51.186;17.130;2023-04-06T03:41:15;-0.36;69.66
70534;SHT31;58088;51.186;17.130;2023-04-06T03:43:45;-0.37;69.62
70534;SHT31;58088;51.186;17.130;2023-04-06T03:46:12;-0.37;69.59
70534;SHT31;58088;51.186;17.130;2023-04-06T03:48:38;-0.39;69.45
70534;SHT31;58088;51.186;17.130;2023-04-06T03:51:05;-0.42;69.38
70534;SHT31;58088;51.186;17.130;2023-04-06T03:53:31;-0.43;69.29
70534;SHT31;58088;51.186;17.130;2023-04-06T03:55:58;-0.44;69.28
70534;SHT31;58088;51.186;17.130;2023-04-06T03:58:24;-0.47;69.34
70534;SHT31;58088;51.186;17.130;2023-04-06T04:00:51;-0.48;69.38
70534;SHT31;58088;51.186;17.130;2023-04-06T04:03:17;-0.51;69.52
70534;SHT31;58088;51.186;17.130;2023-04-06T04:05:44;-0.51;69.57
70534;SHT31;58088;51.186;17.130;2023-04-06T04:08:10;-0.54;69.56
70534;SHT31;58088;51.186;17.130;2023-04-06T04:10:37;-0.51;69.40
70534;SHT31;58088;51.186;17.130;2023-04-06T04:13:03;-0.51;69.24
70534;SHT31;58088;51.186;17.130;2023-04-06T04:15:30;-0.53;69.21
70534;SHT31;58088;51.186;17.130;2023-04-06T04:17:56;-0.54;69.16
70534;SHT31;58088;51.186;17.130;2023-04-06T04:20:23;-0.55;69.03
70534;SHT31;58088;51.186;17.130;2023-04-06T04:22:49;-0.56;69.00
70534;SHT31;58088;51.186;17.130;2023-04-06T04:25:16;-0.55;68.90
70534;SHT31;58088;51.186;17.130;2023-04-06T04:27:47;-0.53;68.86
70534;SHT31;58088;51.186;17.130;2023-04-06T04:30:13;-0.54;68.98
70534;SHT31;58088;51.186;17.130;2023-04-06T04:32:41;-0.53;68.98
70534;SHT31;58088;51.186;17.130;2023-04-06T04:35:08;-0.53;69.17
70534;SHT31;58088;51.186;17.130;2023-04-06T04:37:40;-0.49;69.22
70534;SHT31;58088;51.186;17.130;2023-04-06T04:40:07;-0.47;69.13
70534;SHT31;58088;51.186;17.130;2023-04-06T04:42:43;-0.43;69.04
70534;SHT31;58088;51.186;17.130;2023-04-06T04:45:15;-0.38;69.18
70534;SHT31;58088;51.186;17.130;2023-04-06T04:47:41;-0.35;69.30
70534;SHT31;58088;51.186;17.130;2023-04-06T04:50:08;-0.24;69.58
70534;SHT31;58088;51.186;17.130;2023-04-06T04:52:37;0.00;69.61
70534;SHT31;58088;51.186;17.130;2023-04-06T04:55:29;0.31;69.43
70534;SHT31;58088;51.186;17.130;2023-04-06T04:57:57;0.61;69.33
70534;SHT31;58088;51.186;17.130;2023-04-06T05:00:35;0.98;68.92
70534;SHT31;58088;51.186;17.130;2023-04-06T05:03:01;1.38;68.41
70534;SHT31;58088;51.186;17.130;2023-04-06T05:05:33;1.81;67.84
70534;SHT31;58088;51.186;17.130;2023-04-06T05:08:01;2.26;67.31
70534;SHT31;58088;51.186;17.130;2023-04-06T05:10:38;2.72;66.97
70534;SHT31;58088;51.186;17.130;2023-04-06T05:13:05;3.03;66.56
70534;SHT31;58088;51.186;17.130;2023-04-06T05:15:31;3.38;66.23
70534;SHT31;58088;51.186;17.130;2023-04-06T05:18:06;3.79;65.50
70534;SHT31;58088;51.186;17.130;2023-04-06T05:20:34;4.25;64.59
70534;SHT31;58088;51.186;17.130;2023-04-06T05:23:01;4.70;63.75
70534;SHT31;58088;51.186;17.130;2023-04-06T05:25:28;5.17;63.12
70534;SHT31;58088;51.186;17.130;2023-04-06T05:27:57;5.60;62.06
70534;SHT31;58088;51.186;17.130;2023-04-06T05:30:34;6.04;61.38
70534;SHT31;58088;51.186;17.130;2023-04-06T05:33:01;6.45;60.11
70534;SHT31;58088;51.186;17.130;2023-04-06T05:35:35;6.78;58.89
70534;SHT31;58088;51.186;17.130;2023-04-06T05:38:07;7.17;58.46
70534;SHT31;58088;51.186;17.130;2023-04-06T05:40:36;7.44;57.70
70534;SHT31;58088;51.186;17.130;2023-04-06T05:43:08;7.65;56.86
70534;SHT31;58088;51.186;17.130;2023-04-06T05:45:36;7.88;56.29
70534;SHT31;58088;51.186;17.130;2023-04-06T05:48:03;8.09;55.63
70534;SHT31;58088;51.186;17.130;2023-04-06T05:50:30;8.34;55.23
70534;SHT31;58088;51.186;17.130;2023-04-06T05:52:56;8.70;54.54
70534;SHT31;58088;51.186;17.130;2023-04-06T05:55:24;8.99;53.78
70534;SHT31;58088;51.186;17.130;2023-04-06T05:57:57;9.20;52.70
70534;SHT31;58088;51.186;17.130;2023-04-06T06:00:23;9.45;52.31
70534;SHT31;58088;51.186;17.130;2023-04-06T06:02:53;9.70;51.79
70534;SHT31;58088;51.186;17.130;2023-04-06T06:05:22;9.91;51.01
70534;SHT31;58088;51.186;17.130;2023-04-06T06:07:49;10.15;50.46
70534;SHT31;58088;51.186;17.130;2023-04-06T06:10:15;10.47;49.82
70534;SHT31;58088;51.186;17.130;2023-04-06T06:12:42;10.75;48.88
70534;SHT31;58088;51.186;17.130;2023-04-06T06:15:08;11.00;48.24
70534;SHT31;58088;51.186;17.130;2023-04-06T06:17:38;11.28;47.72
70534;SHT31;58088;51.186;17.130;2023-04-06T06:20:07;11.44;47.12
70534;SHT31;58088;51.186;17.130;2023-04-06T06:22:35;11.58;47.04
70534;SHT31;58088;51.186;17.130;2023-04-06T06:25:02;11.74;47.04
70534;SHT31;58088;51.186;17.130;2023-04-06T06:27:28;11.95;46.03
70534;SHT31;58088;51.186;17.130;2023-04-06T06:29:55;12.01;45.73
70534;SHT31;58088;51.186;17.130;2023-04-06T06:32:22;12.14;44.92
70534;SHT31;58088;51.186;17.130;2023-04-06T06:34:50;12.21;44.86
70534;SHT31;58088;51.186;17.130;2023-04-06T06:37:17;12.40;45.14
70534;SHT31;58088;51.186;17.130;2023-04-06T06:39:43;12.63;44.31
70534;SHT31;58088;51.186;17.130;2023-04-06T06:42:09;12.82;43.85
70534;SHT31;58088;51.186;17.130;2023-04-06T06:45:11;12.98;43.32
70534;SHT31;58088;51.186;17.130;2023-04-06T06:47:37;13.04;43.15
70534;SHT31;58088;51.186;17.130;2023-04-06T06:50:03;13.18;43.45
70534;SHT31;58088;51.186;17.130;2023-04-06T06:52:30;13.36;43.20
70534;SHT31;58088;51.186;17.130;2023-04-06T06:54:57;13.46;43.21
70534;SHT31;58088;51.186;17.130;2023-04-06T06:57:23;13.45;43.02
70534;SHT31;58088;51.186;17.130;2023-04-06T06:59:50;13.42;43.03
70534;SHT31;58088;51.186;17.130;2023-04-06T07:02:17;13.32;42.46
70534;SHT31;58088;51.186;17.130;2023-04-06T07:04:43;13.25;42.68
70534;SHT31;58088;51.186;17.130;2023-04-06T07:07:14;13.22;43.06
70534;SHT31;58088;51.186;17.130;2023-04-06T07:09:40;13.22;42.95
70534;SHT31;58088;51.186;17.130;2023-04-06T07:12:06;13.12;42.67
70534;SHT31;58088;51.186;17.130;2023-04-06T07:14:32;13.05;42.97
70534;SHT31;58088;51.186;17.130;2023-04-06T07:16:58;12.92;43.17
70534;SHT31;58088;51.186;17.130;2023-04-06T07:19:25;12.73;42.75
70534;SHT31;58088;51.186;17.130;2023-04-06T07:21:51;12.69;42.60
70534;SHT31;58088;51.186;17.130;2023-04-06T07:24:17;12.70;42.30
70534;SHT31;58088;51.186;17.130;2023-04-06T07:26:43;12.61;41.91
70534;SHT31;58088;51.186;17.130;2023-04-06T07:29:09;12.51;41.30
70534;SHT31;58088;51.186;17.130;2023-04-06T07:31:36;12.35;40.84
70534;SHT31;58088;51.186;17.130;2023-04-06T07:34:02;12.13;41.33
70534;SHT31;58088;51.186;17.130;2023-04-06T07:36:29;11.95;41.47
70534;SHT31;58088;51.186;17.130;2023-04-06T07:38:55;11.77;41.96
70534;SHT31;58088;51.186;17.130;2023-04-06T07:41:22;11.68;42.06
70534;SHT31;58088;51.186;17.130;2023-04-06T07:43:49;11.70;41.70
70534;SHT31;58088;51.186;17.130;2023-04-06T07:46:15;11.56;41.16
70534;SHT31;58088;51.186;17.130;2023-04-06T07:48:42;11.23;41.47
70534;SHT31;58088;51.186;17.130;2023-04-06T07:51:08;11.27;42.24
70534;SHT31;58088;51.186;17.130;2023-04-06T07:53:40;11.35;41.89
70534;SHT31;58088;51.186;17.130;2023-04-06T07:56:06;11.18;42.02
70534;SHT31;58088;51.186;17.130;2023-04-06T07:58:32;11.19;41.83
70534;SHT31;58088;51.186;17.130;2023-04-06T08:00:58;11.15;41.62
70534;SHT31;58088;51.186;17.130;2023-04-06T08:03:25;11.09;42.29
70534;SHT31;58088;51.186;17.130;2023-04-06T08:05:52;11.15;42.01
70534;SHT31;58088;51.186;17.130;2023-04-06T08:08:18;11.18;41.44
70534;SHT31;58088;51.186;17.130;2023-04-06T08:10:49;11.31;40.63
70534;SHT31;58088;51.186;17.130;2023-04-06T08:13:15;11.30;39.96
70534;SHT31;58088;51.186;17.130;2023-04-06T08:15:42;11.26;40.37
70534;SHT31;58088;51.186;17.130;2023-04-06T08:18:09;11.38;39.74
70534;SHT31;58088;51.186;17.130;2023-04-06T08:20:35;11.20;39.41
70534;SHT31;58088;51.186;17.130;2023-04-06T08:23:02;11.22;40.08
70534;SHT31;58088;51.186;17.130;2023-04-06T08:25:28;11.37;39.72
70534;SHT31;58088;51.186;17.130;2023-04-06T08:27:55;11.32;38.71
70534;SHT31;58088;51.186;17.130;2023-04-06T08:30:21;11.23;38.52
70534;SHT31;58088;51.186;17.130;2023-04-06T08:32:47;11.20;38.06
70534;SHT31;58088;51.186;17.130;2023-04-06T08:35:13;11.18;37.99
70534;SHT31;58088;51.186;17.130;2023-04-06T08:37:40;10.90;37.45
70534;SHT31;58088;51.186;17.130;2023-04-06T08:40:06;10.67;37.52
70534;SHT31;58088;51.186;17.130;2023-04-06T08:42:33;10.62;38.00
70534;SHT31;58088;51.186;17.130;2023-04-06T08:45:13;10.62;38.26
70534;SHT31;58088;51.186;17.130;2023-04-06T08:47:41;10.62;38.73
70534;SHT31;58088;51.186;17.130;2023-04-06T08:50:10;10.84;39.45
70534;SHT31;58088;51.186;17.130;2023-04-06T08:52:37;11.02;38.96
70534;SHT31;58088;51.186;17.130;2023-04-06T08:55:06;11.10;38.68
70534;SHT31;58088;51.186;17.130;2023-04-06T08:57:33;11.00;37.90
70534;SHT31;58088;51.186;17.130;2023-04-06T09:00:02;10.94;38.29
70534;SHT31;58088;51.186;17.130;2023-04-06T09:02:29;10.80;37.68
70534;SHT31;58088;51.186;17.130;2023-04-06T09:04:56;10.72;38.20
70534;SHT31;58088;51.186;17.130;2023-04-06T09:07:23;10.72;38.49
70534;SHT31;58088;51.186;17.130;2023-04-06T09:09:49;10.69;38.16
70534;SHT31;58088;51.186;17.130;2023-04-06T09:12:27;10.65;38.06
70534;SHT31;58088;51.186;17.130;2023-04-06T09:14:56;10.62;38.24
70534;SHT31;58088;51.186;17.130;2023-04-06T09:17:24;10.64;38.52
70534;SHT31;58088;51.186;17.130;2023-04-06T09:19:53;10.55;38.14
70534;SHT31;58088;51.186;17.130;2023-04-06T09:22:21;10.56;38.32
70534;SHT31;58088;51.186;17.130;2023-04-06T09:24:53;10.63;38.52
70534;SHT31;58088;51.186;17.130;2023-04-06T09:27:30;10.52;38.40
70534;SHT31;58088;51.186;17.130;2023-04-06T09:30:05;10.36;38.20
70534;SHT31;58088;51.186;17.130;2023-04-06T09:32:47;10.38;39.13
70534;SHT31;58088;51.186;17.130;2023-04-06T09:35:15;10.34;39.25
70534;SHT31;58088;51.186;17.130;2023-04-06T09:37:48;10.38;39.32
70534;SHT31;58088;51.186;17.130;2023-04-06T09:40:17;10.48;40.02
70534;SHT31;58088;51.186;17.130;2023-04-06T09:42:45;10.59;39.96
70534;SHT31;58088;51.186;17.130;2023-04-06T09:45:12;10.56;39.07
70534;SHT31;58088;51.186;17.130;2023-04-06T09:47:39;10.53;38.83
70534;SHT31;58088;51.186;17.130;2023-04-06T09:50:10;10.43;38.85
70534;SHT31;58088;51.186;17.130;2023-04-06T09:52:50;10.32;39.16
70534;SHT31;58088;51.186;17.130;2023-04-06T09:55:25;10.41;39.19
70534;SHT31;58088;51.186;17.130;2023-04-06T09:58:07;10.45;38.02
70534;SHT31;58088;51.186;17.130;2023-04-06T10:00:47;10.44;38.15
70534;SHT31;58088;51.186;17.130;2023-04-06T10:06:21;10.62;38.04
70534;SHT31;58088;51.186;17.130;2023-04-06T10:08:51;10.53;37.78
70534;SHT31;58088;51.186;17.130;2023-04-06T10:11:21;10.53;37.90
70534;SHT31;58088;51.186;17.130;2023-04-06T10:13:48;10.62;37.78
70534;SHT31;58088;51.186;17.130;2023-04-06T10:16:16;10.72;37.47
70534;SHT31;58088;51.186;17.130;2023-04-06T10:18:46;10.72;37.21
70534;SHT31;58088;51.186;17.130;2023-04-06T10:21:20;10.78;37.81
70534;SHT31;58088;51.186;17.130;2023-04-06T10:23:53;10.92;38.55
70534;SHT31;58088;51.186;17.130;2023-04-06T10:26:25;10.98;38.29
70534;SHT31;58088;51.186;17.130;2023-04-06T10:28:51;10.98;38.32
70534;SHT31;58088;51.186;17.130;2023-04-06T10:31:24;10.79;37.98
70534;SHT31;58088;51.186;17.130;2023-04-06T10:33:53;10.65;37.76
70534;SHT31;58088;51.186;17.130;2023-04-06T10:36:28;10.70;38.28
70534;SHT31;58088;51.186;17.130;2023-04-06T10:38:59;10.80;37.73
70534;SHT31;58088;51.186;17.130;2023-04-06T10:42:05;10.77;37.78
70534;SHT31;58088;51.186;17.130;2023-04-06T10:44:31;10.73;37.58
70534;SHT31;58088;51.186;17.130;2023-04-06T10:47:15;10.70;37.76
70534;SHT31;58088;51.186;17.130;2023-04-06T10:49:43;10.83;37.37
70534;SHT31;58088;51.186;17.130;2023-04-06T10:52:09;10.93;37.78
70534;SHT31;58088;51.186;17.130;2023-04-06T10:54:39;10.78;38.00
70534;SHT31;58088;51.186;17.130;2023-04-06T10:57:09;10.59;37.57
70534;SHT31;58088;51.186;17.130;2023-04-06T10:59:36;10.57;37.59
70534;SHT31;58088;51.186;17.130;2023-04-06T11:02:02;10.52;37.08
70534;SHT31;58088;51.186;17.130;2023-04-06T11:04:28;10.45;37.49
70534;SHT31;58088;51.186;17.130;2023-04-06T11:06:54;10.53;37.75
70534;SHT31;58088;51.186;17.130;2023-04-06T11:09:24;10.70;37.94
70534;SHT31;58088;51.186;17.130;2023-04-06T11:11:53;10.87;38.80
70534;SHT31;58088;51.186;17.130;2023-04-06T11:14:20;10.98;38.19
70534;SHT31;58088;51.186;17.130;2023-04-06T11:16:47;11.09;37.96
70534;SHT31;58088;51.186;17.130;2023-04-06T11:19:15;11.16;38.18
70534;SHT31;58088;51.186;17.130;2023-04-06T11:21:43;11.31;38.24
70534;SHT31;58088;51.186;17.130;2023-04-06T11:24:21;11.36;37.70
70534;SHT31;58088;51.186;17.130;2023-04-06T11:26:55;11.40;37.10
70534;SHT31;58088;51.186;17.130;2023-04-06T11:29:24;11.43;37.45
70534;SHT31;58088;51.186;17.130;2023-04-06T11:31:59;11.51;37.74
70534;SHT31;58088;51.186;17.130;2023-04-06T11:34:33;11.58;37.36
70534;SHT31;58088;51.186;17.130;2023-04-06T11:37:03;11.66;37.39
70534;SHT31;58088;51.186;17.130;2023-04-06T11:39:38;11.55;36.83
70534;SHT31;58088;51.186;17.130;2023-04-06T11:42:08;11.35;37.05
70534;SHT31;58088;51.186;17.130;2023-04-06T11:44:37;11.19;36.83
70534;SHT31;58088;51.186;17.130;2023-04-06T11:47:10;11.09;36.81
70534;SHT31;58088;51.186;17.130;2023-04-06T11:49:39;11.11;36.91
70534;SHT31;58088;51.186;17.130;2023-04-06T11:52:15;11.15;36.86
70534;SHT31;58088;51.186;17.130;2023-04-06T11:54:44;11.16;36.95
70534;SHT31;58088;51.186;17.130;2023-04-06T11:57:11;11.17;37.62
70534;SHT31;58088;51.186;17.130;2023-04-06T11:59:37;11.12;36.84
70534;SHT31;58088;51.186;17.130;2023-04-06T12:02:04;11.06;36.59
70534;SHT31;58088;51.186;17.130;2023-04-06T12:04:31;11.13;37.69
70534;SHT31;58088;51.186;17.130;2023-04-06T12:06:57;11.23;38.10
70534;SHT31;58088;51.186;17.130;2023-04-06T12:09:24;11.30;37.70
70534;SHT31;58088;51.186;17.130;2023-04-06T12:11:51;11.25;36.99
70534;SHT31;58088;51.186;17.130;2023-04-06T12:14:17;11.13;36.64
70534;SHT31;58088;51.186;17.130;2023-04-06T12:16:43;11.02;36.79
70534;SHT31;58088;51.186;17.130;2023-04-06T12:19:09;11.12;37.67
70534;SHT31;58088;51.186;17.130;2023-04-06T12:21:35;11.17;37.46
70534;SHT31;58088;51.186;17.130;2023-04-06T12:24:06;11.15;37.44
70534;SHT31;58088;51.186;17.130;2023-04-06T12:26:32;11.14;37.28
70534;SHT31;58088;51.186;17.130;2023-04-06T12:28:59;11.17;37.34
70534;SHT31;58088;51.186;17.130;2023-04-06T12:31:43;11.21;37.20
70534;SHT31;58088;51.186;17.130;2023-04-06T12:34:10;11.21;37.13
70534;SHT31;58088;51.186;17.130;2023-04-06T12:36:37;11.20;36.92
70534;SHT31;58088;51.186;17.130;2023-04-06T12:39:04;11.21;36.84
70534;SHT31;58088;51.186;17.130;2023-04-06T12:41:31;11.24;36.87
70534;SHT31;58088;51.186;17.130;2023-04-06T12:43:58;11.20;36.92
70534;SHT31;58088;51.186;17.130;2023-04-06T12:46:27;11.20;37.05
70534;SHT31;58088;51.186;17.130;2023-04-06T12:48:58;11.23;37.64
70534;SHT31;58088;51.186;17.130;2023-04-06T12:51:27;11.23;37.36
70534;SHT31;58088;51.186;17.130;2023-04-06T12:53:54;11.12;37.14
70534;SHT31;58088;51.186;17.130;2023-04-06T12:56:20;11.13;37.28
70534;SHT31;58088;51.186;17.130;2023-04-06T12:58:48;11.20;37.46
70534;SHT31;58088;51.186;17.130;2023-04-06T13:01:16;11.28;37.19
70534;SHT31;58088;51.186;17.130;2023-04-06T13:03:43;11.16;36.67
70534;SHT31;58088;51.186;17.130;2023-04-06T13:06:09;11.04;36.48
70534;SHT31;58088;51.186;17.130;2023-04-06T13:08:37;11.04;37.40
70534;SHT31;58088;51.186;17.130;2023-04-06T13:11:05;11.04;37.11
70534;SHT31;58088;51.186;17.130;2023-04-06T13:13:34;11.09;36.75
70534;SHT31;58088;51.186;17.130;2023-04-06T13:16:03;11.14;36.88
70534;SHT31;58088;51.186;17.130;2023-04-06T13:18:33;11.10;36.96
70534;SHT31;58088;51.186;17.130;2023-04-06T13:21:00;11.16;37.62
70534;SHT31;58088;51.186;17.130;2023-04-06T13:23:26;11.23;37.50
70534;SHT31;58088;51.186;17.130;2023-04-06T13:26:03;11.23;37.02
70534;SHT31;58088;51.186;17.130;2023-04-06T13:28:32;11.14;37.08
70534;SHT31;58088;51.186;17.130;2023-04-06T13:31:01;11.10;37.03
70534;SHT31;58088;51.186;17.130;2023-04-06T13:33:28;11.10;37.48
70534;SHT31;58088;51.186;17.130;2023-04-06T13:35:56;11.15;37.42
70534;SHT31;58088;51.186;17.130;2023-04-06T13:38:23;11.11;36.99
70534;SHT31;58088;51.186;17.130;2023-04-06T13:40:50;11.05;37.01
70534;SHT31;58088;51.186;17.130;2023-04-06T13:43:17;11.05;36.99
70534;SHT31;58088;51.186;17.130;2023-04-06T13:45:50;11.05;36.74
70534;SHT31;58088;51.186;17.130;2023-04-06T13:48:19;10.93;36.62
70534;SHT31;58088;51.186;17.130;2023-04-06T13:50:45;10.81;36.85
70534;SHT31;58088;51.186;17.130;2023-04-06T13:53:12;10.74;37.07
70534;SHT31;58088;51.186;17.130;2023-04-06T13:55:38;10.66;36.81
70534;SHT31;58088;51.186;17.130;2023-04-06T13:58:05;10.58;36.91
70534;SHT31;58088;51.186;17.130;2023-04-06T14:00:31;10.48;37.08
70534;SHT31;58088;51.186;17.130;2023-04-06T14:02:57;10.29;37.06
70534;SHT31;58088;51.186;17.130;2023-04-06T14:05:23;10.16;37.66
70534;SHT31;58088;51.186;17.130;2023-04-06T14:07:50;10.09;37.72
70534;SHT31;58088;51.186;17.130;2023-04-06T14:10:16;10.03;37.72
70534;SHT31;58088;51.186;17.130;2023-04-06T14:12:42;9.97;37.63
70534;SHT31;58088;51.186;17.130;2023-04-06T14:15:10;9.96;38.42
70534;SHT31;58088;51.186;17.130;2023-04-06T14:17:38;10.03;38.59
70534;SHT31;58088;51.186;17.130;2023-04-06T14:20:05;10.12;38.27
70534;SHT31;58088;51.186;17.130;2023-04-06T14:22:33;10.14;38.41
70534;SHT31;58088;51.186;17.130;2023-04-06T14:24:59;10.21;38.26
70534;SHT31;58088;51.186;17.130;2023-04-06T14:27:26;10.31;38.84
70534;SHT31;58088;51.186;17.130;2023-04-06T14:29:52;10.42;38.61
70534;SHT31;58088;51.186;17.130;2023-04-06T14:32:19;10.48;38.37
70534;SHT31;58088;51.186;17.130;2023-04-06T14:34:46;10.49;38.08
70534;SHT31;58088;51.186;17.130;2023-04-06T14:37:12;10.52;38.17
70534;SHT31;58088;51.186;17.130;2023-04-06T14:39:39;10.62;37.83
70534;SHT31;58088;51.186;17.130;2023-04-06T14:42:05;10.68;37.68
70534;SHT31;58088;51.186;17.130;2023-04-06T14:44:32;10.73;37.71
70534;SHT31;58088;51.186;17.130;2023-04-06T14:47:00;10.78;37.74
70534;SHT31;58088;51.186;17.130;2023-04-06T14:49:29;10.72;37.24
70534;SHT31;58088;51.186;17.130;2023-04-06T14:51:55;10.63;37.71
70534;SHT31;58088;51.186;17.130;2023-04-06T14:54:22;10.61;37.73
70534;SHT31;58088;51.186;17.130;2023-04-06T14:56:48;10.58;37.94
70534;SHT31;58088;51.186;17.130;2023-04-06T14:59:15;10.61;37.71
70534;SHT31;58088;51.186;17.130;2023-04-06T15:01:42;10.61;38.16
70534;SHT31;58088;51.186;17.130;2023-04-06T15:04:08;10.58;37.20
70534;SHT31;58088;51.186;17.130;2023-04-06T15:06:34;10.56;37.66
70534;SHT31;58088;51.186;17.130;2023-04-06T15:09:01;10.53;37.46
70534;SHT31;58088;51.186;17.130;2023-04-06T15:11:28;10.53;37.84
70534;SHT31;58088;51.186;17.130;2023-04-06T15:13:54;10.56;38.47
70534;SHT31;58088;51.186;17.130;2023-04-06T15:16:20;10.52;37.96
70534;SHT31;58088;51.186;17.130;2023-04-06T15:18:47;10.46;38.18
70534;SHT31;58088;51.186;17.130;2023-04-06T15:21:13;10.44;38.54
70534;SHT31;58088;51.186;17.130;2023-04-06T15:23:39;10.41;38.39
70534;SHT31;58088;51.186;17.130;2023-04-06T15:26:05;10.40;38.65
70534;SHT31;58088;51.186;17.130;2023-04-06T15:28:32;10.39;38.66
70534;SHT31;58088;51.186;17.130;2023-04-06T15:30:58;10.36;38.49